sensor_id;sensor_type;location;lat;lon;timestamp;pressure;altitude;pressure_sealevel;temperature
12234;BMP180;6179;51.748;8.728;2023-08-20T00:04:51;108423.00;;;222.90
12234;BMP180;6179;51.748;8.728;2023-08-20T00:10:52;108424.00;;;222.90
12234;BMP180;6179;51.748;8.728;2023-08-20T00:16:53;108420.00;;;222.90
12234;BMP180;6179;51.748;8.728;2023-08-20T00:22:54;108422.00;;;222.90
12234;BMP180;6179;51.748;8.728;2023-08-20T00:28:55;108423.00;;;222.90
12234;BMP180;6179;51.748;8.728;2023-08-20T00:34:56;108421.00;;;222.90
12234;BMP180;6179;51.748;8.728;2023-08-20T00:40:56;108423.00;;;222.90
12234;BMP180;6179;51.748;8.728;2023-08-20T00:46:58;108424.00;;;222.90
12234;BMP180;6179;51.748;8.728;2023-08-20T00:53:00;108425.00;;;222.90
12234;BMP180;6179;51.748;8.728;2023-08-20T00:59:02;108421.00;;;222.90
12234;BMP180;6179;51.748;8.728;2023-08-20T01:05:06;108423.00;;;222.90
12234;BMP180;6179;51.748;8.728;2023-08-20T01:11:17;108423.00;;;222.90
12234;BMP180;6179;51.748;8.728;2023-08-20T01:17:23;108423.00;;;222.90
12234;BMP180;6179;51.748;8.728;2023-08-20T01:29:32;108423.00;;;222.90
12234;BMP180;6179;51.748;8.728;2023-08-20T01:35:33;108425.00;;;222.90
12234;BMP180;6179;51.748;8.728;2023-08-20T01:41:34;108426.00;;;222.90
12234;BMP180;6179;51.748;8.728;2023-08-20T01:47:35;108423.00;;;222.90
12234;BMP180;6179;51.748;8.728;2023-08-20T01:53:36;108430.00;;;222.90
12234;BMP180;6179;51.748;8.728;2023-08-20T01:59:36;108433.00;;;222.90
12234;BMP180;6179;51.748;8.728;2023-08-20T02:05:37;108423.00;;;222.90
12234;BMP180;6179;51.748;8.728;2023-08-20T02:11:38;108424.00;;;222.90
12234;BMP180;6179;51.748;8.728;2023-08-20T02:17:39;108424.00;;;222.90
12234;BMP180;6179;51.748;8.728;2023-08-20T02:23:40;108423.00;;;222.90
12234;BMP180;6179;51.748;8.728;2023-08-20T02:29:40;230388.00;;;222.90
12234;BMP180;6179;51.748;8.728;2023-08-20T02:35:41;230388.00;;;222.90
12234;BMP180;6179;51.748;8.728;2023-08-20T02:41:42;230388.00;;;222.90
12234;BMP180;6179;51.748;8.728;2023-08-20T02:47:43;230388.00;;;222.90
12234;BMP180;6179;51.748;8.728;2023-08-20T02:53:44;230388.00;;;222.90
12234;BMP180;6179;51.748;8.728;2023-08-20T02:59:45;230386.00;;;222.90
12234;BMP180;6179;51.748;8.728;2023-08-20T03:05:45;98229.00;;;222.90
12234;BMP180;6179;51.748;8.728;2023-08-20T03:11:46;108422.00;;;222.90
12234;BMP180;6179;51.748;8.728;2023-08-20T03:17:47;108426.00;;;222.90
12234;BMP180;6179;51.748;8.728;2023-08-20T03:23:49;230388.00;;;222.90
12234;BMP180;6179;51.748;8.728;2023-08-20T03:29:51;230388.00;;;222.90
12234;BMP180;6179;51.748;8.728;2023-08-20T03:35:52;230388.00;;;222.90
12234;BMP180;6179;51.748;8.728;2023-08-20T03:41:53;230388.00;;;222.90
12234;BMP180;6179;51.748;8.728;2023-08-20T03:47:54;230388.00;;;222.90
12234;BMP180;6179;51.748;8.728;2023-08-20T03:53:54;230388.00;;;222.90
12234;BMP180;6179;51.748;8.728;2023-08-20T03:59:55;230388.00;;;222.90
12234;BMP180;6179;51.748;8.728;2023-08-20T04:05:56;230388.00;;;222.90
12234;BMP180;6179;51.748;8.728;2023-08-20T04:11:57;230388.00;;;222.90
12234;BMP180;6179;51.748;8.728;2023-08-20T04:17:57;230388.00;;;222.90
12234;BMP180;6179;51.748;8.728;2023-08-20T04:23:58;230388.00;;;222.90
12234;BMP180;6179;51.748;8.728;2023-08-20T04:29:59;230388.00;;;222.90
12234;BMP180;6179;51.748;8.728;2023-08-20T04:36:00;108427.00;;;222.90
12234;BMP180;6179;51.748;8.728;2023-08-20T04:42:01;108424.00;;;222.90
12234;BMP180;6179;51.748;8.728;2023-08-20T04:48:01;230388.00;;;222.90
12234;BMP180;6179;51.748;8.728;2023-08-20T04:54:02;230388.00;;;222.90
12234;BMP180;6179;51.748;8.728;2023-08-20T05:00:04;230388.00;;;222.90
12234;BMP180;6179;51.748;8.728;2023-08-20T05:06:06;230388.00;;;222.90
12234;BMP180;6179;51.748;8.728;2023-08-20T05:12:07;230388.00;;;222.90
12234;BMP180;6179;51.748;8.728;2023-08-20T05:18:08;230388.00;;;222.90
12234;BMP180;6179;51.748;8.728;2023-08-20T05:24:09;230388.00;;;222.90
12234;BMP180;6179;51.748;8.728;2023-08-20T05:30:10;230388.00;;;222.90
12234;BMP180;6179;51.748;8.728;2023-08-20T05:36:11;230388.00;;;222.90
12234;BMP180;6179;51.748;8.728;2023-08-20T05:42:12;230388.00;;;222.90
12234;BMP180;6179;51.748;8.728;2023-08-20T05:48:13;230388.00;;;222.90
12234;BMP180;6179;51.748;8.728;2023-08-20T05:54:13;230388.00;;;222.90
12234;BMP180;6179;51.748;8.728;2023-08-20T06:00:14;230388.00;;;222.90
12234;BMP180;6179;51.748;8.728;2023-08-20T06:06:16;230388.00;;;222.90
12234;BMP180;6179;51.748;8.728;2023-08-20T06:12:17;230388.00;;;222.90
12234;BMP180;6179;51.748;8.728;2023-08-20T06:18:18;230388.00;;;222.90
12234;BMP180;6179;51.748;8.728;2023-08-20T06:24:19;230388.00;;;222.90
12234;BMP180;6179;51.748;8.728;2023-08-20T06:30:19;108423.00;;;222.90
12234;BMP180;6179;51.748;8.728;2023-08-20T06:36:20;108424.00;;;222.90
12234;BMP180;6179;51.748;8.728;2023-08-20T06:42:21;108425.00;;;222.90
12234;BMP180;6179;51.748;8.728;2023-08-20T06:48:22;108424.00;;;222.90
12234;BMP180;6179;51.748;8.728;2023-08-20T06:54:25;108425.00;;;222.90
12234;BMP180;6179;51.748;8.728;2023-08-20T07:00:26;108425.00;;;222.90
12234;BMP180;6179;51.748;8.728;2023-08-20T07:06:27;108424.00;;;222.90
12234;BMP180;6179;51.748;8.728;2023-08-20T07:12:28;108423.00;;;222.90
12234;BMP180;6179;51.748;8.728;2023-08-20T07:18:29;108426.00;;;222.90
12234;BMP180;6179;51.748;8.728;2023-08-20T07:24:30;108424.00;;;222.90
12234;BMP180;6179;51.748;8.728;2023-08-20T07:30:36;108424.00;;;222.90
12234;BMP180;6179;51.748;8.728;2023-08-20T07:36:36;108423.00;;;222.90
12234;BMP180;6179;51.748;8.728;2023-08-20T07:42:37;108426.00;;;222.90
12234;BMP180;6179;51.748;8.728;2023-08-20T07:48:38;108425.00;;;222.90
12234;BMP180;6179;51.748;8.728;2023-08-20T07:54:40;108422.00;;;222.90
12234;BMP180;6179;51.748;8.728;2023-08-20T08:00:40;108420.00;;;222.90
12234;BMP180;6179;51.748;8.728;2023-08-20T08:06:41;108424.00;;;222.90
12234;BMP180;6179;51.748;8.728;2023-08-20T08:12:42;108425.00;;;222.90
12234;BMP180;6179;51.748;8.728;2023-08-20T08:18:42;108425.00;;;222.90
12234;BMP180;6179;51.748;8.728;2023-08-20T08:24:43;108423.00;;;222.90
12234;BMP180;6179;51.748;8.728;2023-08-20T08:30:44;108425.00;;;222.90
12234;BMP180;6179;51.748;8.728;2023-08-20T08:36:45;108429.00;;;222.90
12234;BMP180;6179;51.748;8.728;2023-08-20T08:42:49;108425.00;;;222.90
12234;BMP180;6179;51.748;8.728;2023-08-20T08:48:52;108423.00;;;222.90
12234;BMP180;6179;51.748;8.728;2023-08-20T08:54:53;108427.00;;;222.90
12234;BMP180;6179;51.748;8.728;2023-08-20T09:00:54;108424.00;;;222.90
12234;BMP180;6179;51.748;8.728;2023-08-20T09:06:55;108424.00;;;222.90
12234;BMP180;6179;51.748;8.728;2023-08-20T09:12:57;108428.00;;;222.90
12234;BMP180;6179;51.748;8.728;2023-08-20T09:19:01;230388.00;;;222.90
12234;BMP180;6179;51.748;8.728;2023-08-20T09:25:02;108424.00;;;222.90
12234;BMP180;6179;51.748;8.728;2023-08-20T09:31:03;108423.00;;;222.90
12234;BMP180;6179;51.748;8.728;2023-08-20T09:37:07;108419.00;;;222.90
12234;BMP180;6179;51.748;8.728;2023-08-20T09:43:12;108425.00;;;222.90
12234;BMP180;6179;51.748;8.728;2023-08-20T09:49:18;108423.00;;;222.90
12234;BMP180;6179;51.748;8.728;2023-08-20T09:55:30;108425.00;;;222.90
12234;BMP180;6179;51.748;8.728;2023-08-20T10:01:35;108430.00;;;222.90
12234;BMP180;6179;51.748;8.728;2023-08-20T10:07:37;108424.00;;;222.90
12234;BMP180;6179;51.748;8.728;2023-08-20T10:13:39;108420.00;;;222.90
12234;BMP180;6179;51.748;8.728;2023-08-20T10:19:40;108430.00;;;222.90
12234;BMP180;6179;51.748;8.728;2023-08-20T10:25:42;108425.00;;;222.90
12234;BMP180;6179;51.748;8.728;2023-08-20T10:31:47;108429.00;;;222.90
12234;BMP180;6179;51.748;8.728;2023-08-20T10:38:08;108426.00;;;222.90
12234;BMP180;6179;51.748;8.728;2023-08-20T10:44:11;108423.00;;;222.90
12234;BMP180;6179;51.748;8.728;2023-08-20T10:50:16;108426.00;;;222.90
12234;BMP180;6179;51.748;8.728;2023-08-20T10:56:17;108425.00;;;222.90
12234;BMP180;6179;51.748;8.728;2023-08-20T11:02:20;108423.00;;;222.90
12234;BMP180;6179;51.748;8.728;2023-08-20T11:08:22;108423.00;;;222.90
12234;BMP180;6179;51.748;8.728;2023-08-20T11:14:23;108425.00;;;222.90
12234;BMP180;6179;51.748;8.728;2023-08-20T11:20:24;108427.00;;;222.90
12234;BMP180;6179;51.748;8.728;2023-08-20T11:26:25;108425.00;;;222.90
12234;BMP180;6179;51.748;8.728;2023-08-20T11:32:26;108427.00;;;222.90
12234;BMP180;6179;51.748;8.728;2023-08-20T11:38:27;108424.00;;;222.90
12234;BMP180;6179;51.748;8.728;2023-08-20T11:44:42;108425.00;;;222.90
12234;BMP180;6179;51.748;8.728;2023-08-20T11:50:43;108428.00;;;222.90
12234;BMP180;6179;51.748;8.728;2023-08-20T11:56:49;108426.00;;;222.90
12234;BMP180;6179;51.748;8.728;2023-08-20T12:02:53;108422.00;;;222.90
12234;BMP180;6179;51.748;8.728;2023-08-20T12:08:55;108423.00;;;222.90
12234;BMP180;6179;51.748;8.728;2023-08-20T12:14:57;108422.00;;;222.90
12234;BMP180;6179;51.748;8.728;2023-08-20T12:20:57;108424.00;;;222.90
12234;BMP180;6179;51.748;8.728;2023-08-20T12:26:58;108426.00;;;222.90
12234;BMP180;6179;51.748;8.728;2023-08-20T12:32:59;108426.00;;;222.90
12234;BMP180;6179;51.748;8.728;2023-08-20T12:39:00;108423.00;;;222.90
12234;BMP180;6179;51.748;8.728;2023-08-20T12:45:00;108428.00;;;222.90
12234;BMP180;6179;51.748;8.728;2023-08-20T12:51:01;108423.00;;;222.90
12234;BMP180;6179;51.748;8.728;2023-08-20T12:57:03;108420.00;;;222.90
12234;BMP180;6179;51.748;8.728;2023-08-20T13:03:05;230388.00;;;222.90
12234;BMP180;6179;51.748;8.728;2023-08-20T13:09:06;230388.00;;;222.90
12234;BMP180;6179;51.748;8.728;2023-08-20T13:15:09;230388.00;;;222.90
12234;BMP180;6179;51.748;8.728;2023-08-20T13:21:11;230388.00;;;222.90
12234;BMP180;6179;51.748;8.728;2023-08-20T13:27:11;230386.00;;;222.90
12234;BMP180;6179;51.748;8.728;2023-08-20T13:33:13;108427.00;;;222.90
12234;BMP180;6179;51.748;8.728;2023-08-20T13:39:14;108424.00;;;222.90
12234;BMP180;6179;51.748;8.728;2023-08-20T13:45:15;230388.00;;;222.90
12234;BMP180;6179;51.748;8.728;2023-08-20T13:51:16;230388.00;;;222.90
12234;BMP180;6179;51.748;8.728;2023-08-20T13:57:16;230388.00;;;222.90
12234;BMP180;6179;51.748;8.728;2023-08-20T14:03:17;108428.00;;;222.90
12234;BMP180;6179;51.748;8.728;2023-08-20T14:09:18;108429.00;;;222.90
12234;BMP180;6179;51.748;8.728;2023-08-20T14:15:19;230388.00;;;222.90
12234;BMP180;6179;51.748;8.728;2023-08-20T14:21:20;230388.00;;;222.90
12234;BMP180;6179;51.748;8.728;2023-08-20T14:27:20;230388.00;;;222.90
12234;BMP180;6179;51.748;8.728;2023-08-20T14:33:22;230388.00;;;222.90
12234;BMP180;6179;51.748;8.728;2023-08-20T14:39:23;230388.00;;;222.90
12234;BMP180;6179;51.748;8.728;2023-08-20T14:45:24;230388.00;;;222.90
12234;BMP180;6179;51.748;8.728;2023-08-20T14:51:25;230388.00;;;222.90
12234;BMP180;6179;51.748;8.728;2023-08-20T14:57:26;108425.00;;;222.90
12234;BMP180;6179;51.748;8.728;2023-08-20T15:03:27;108424.00;;;222.90
12234;BMP180;6179;51.748;8.728;2023-08-20T15:09:28;108423.00;;;222.90
12234;BMP180;6179;51.748;8.728;2023-08-20T15:15:28;108429.00;;;222.90
12234;BMP180;6179;51.748;8.728;2023-08-20T15:21:29;230388.00;;;222.90
12234;BMP180;6179;51.748;8.728;2023-08-20T15:27:30;108426.00;;;222.90
12234;BMP180;6179;51.748;8.728;2023-08-20T15:33:31;230388.00;;;222.90
12234;BMP180;6179;51.748;8.728;2023-08-20T15:39:32;230388.00;;;222.90
12234;BMP180;6179;51.748;8.728;2023-08-20T15:45:34;230388.00;;;222.90
12234;BMP180;6179;51.748;8.728;2023-08-20T15:51:35;230388.00;;;222.90
12234;BMP180;6179;51.748;8.728;2023-08-20T15:57:39;230388.00;;;222.90
12234;BMP180;6179;51.748;8.728;2023-08-20T16:03:41;230388.00;;;222.90
12234;BMP180;6179;51.748;8.728;2023-08-20T16:09:43;230388.00;;;222.90
12234;BMP180;6179;51.748;8.728;2023-08-20T16:15:44;230388.00;;;222.90
12234;BMP180;6179;51.748;8.728;2023-08-20T16:21:44;230388.00;;;222.90
12234;BMP180;6179;51.748;8.728;2023-08-20T16:27:45;108427.00;;;222.90
12234;BMP180;6179;51.748;8.728;2023-08-20T16:33:46;108425.00;;;222.90
12234;BMP180;6179;51.748;8.728;2023-08-20T16:39:47;230388.00;;;222.90
12234;BMP180;6179;51.748;8.728;2023-08-20T16:45:55;108425.00;;;222.90
12234;BMP180;6179;51.748;8.728;2023-08-20T16:51:57;230388.00;;;222.90
12234;BMP180;6179;51.748;8.728;2023-08-20T16:57:57;230388.00;;;222.90
12234;BMP180;6179;51.748;8.728;2023-08-20T17:03:58;230388.00;;;222.90
12234;BMP180;6179;51.748;8.728;2023-08-20T17:09:59;230388.00;;;222.90
12234;BMP180;6179;51.748;8.728;2023-08-20T17:16:00;230388.00;;;222.90
12234;BMP180;6179;51.748;8.728;2023-08-20T17:22:01;230388.00;;;222.90
12234;BMP180;6179;51.748;8.728;2023-08-20T17:28:02;230388.00;;;222.90
12234;BMP180;6179;51.748;8.728;2023-08-20T17:34:04;230388.00;;;222.90
12234;BMP180;6179;51.748;8.728;2023-08-20T17:40:10;230388.00;;;222.90
12234;BMP180;6179;51.748;8.728;2023-08-20T17:46:11;230388.00;;;222.90
12234;BMP180;6179;51.748;8.728;2023-08-20T17:52:11;230388.00;;;222.90
12234;BMP180;6179;51.748;8.728;2023-08-20T17:58:12;230388.00;;;222.90
12234;BMP180;6179;51.748;8.728;2023-08-20T18:04:13;108422.00;;;222.90
12234;BMP180;6179;51.748;8.728;2023-08-20T18:10:15;108426.00;;;222.90
12234;BMP180;6179;51.748;8.728;2023-08-20T18:16:16;108424.00;;;222.90
12234;BMP180;6179;51.748;8.728;2023-08-20T18:22:16;108423.00;;;222.90
12234;BMP180;6179;51.748;8.728;2023-08-20T18:28:17;108423.00;;;222.90
12234;BMP180;6179;51.748;8.728;2023-08-20T18:34:18;108422.00;;;222.90
12234;BMP180;6179;51.748;8.728;2023-08-20T18:40:19;108422.00;;;222.90
12234;BMP180;6179;51.748;8.728;2023-08-20T18:46:20;108424.00;;;222.90
12234;BMP180;6179;51.748;8.728;2023-08-20T18:52:21;230388.00;;;222.90
12234;BMP180;6179;51.748;8.728;2023-08-20T18:58:21;230388.00;;;222.90
12234;BMP180;6179;51.748;8.728;2023-08-20T19:04:22;230388.00;;;222.90
12234;BMP180;6179;51.748;8.728;2023-08-20T19:10:23;230388.00;;;222.90
12234;BMP180;6179;51.748;8.728;2023-08-20T19:16:24;230388.00;;;222.90
12234;BMP180;6179;51.748;8.728;2023-08-20T19:22:25;230388.00;;;222.90
12234;BMP180;6179;51.748;8.728;2023-08-20T19:28:26;230388.00;;;222.90
12234;BMP180;6179;51.748;8.728;2023-08-20T19:34:27;230388.00;;;222.90
12234;BMP180;6179;51.748;8.728;2023-08-20T19:40:28;230388.00;;;222.90
12234;BMP180;6179;51.748;8.728;2023-08-20T19:46:29;230388.00;;;222.90
12234;BMP180;6179;51.748;8.728;2023-08-20T19:52:30;230388.00;;;222.90
12234;BMP180;6179;51.748;8.728;2023-08-20T19:58:30;230388.00;;;222.90
12234;BMP180;6179;51.748;8.728;2023-08-20T20:04:31;230388.00;;;222.90
12234;BMP180;6179;51.748;8.728;2023-08-20T20:10:33;230388.00;;;222.90
12234;BMP180;6179;51.748;8.728;2023-08-20T20:16:34;230388.00;;;222.90
12234;BMP180;6179;51.748;8.728;2023-08-20T20:22:36;230388.00;;;222.90
12234;BMP180;6179;51.748;8.728;2023-08-20T20:28:37;230388.00;;;222.90
12234;BMP180;6179;51.748;8.728;2023-08-20T20:34:39;230388.00;;;222.90
12234;BMP180;6179;51.748;8.728;2023-08-20T20:40:42;230388.00;;;222.90
12234;BMP180;6179;51.748;8.728;2023-08-20T20:46:44;230388.00;;;222.90
12234;BMP180;6179;51.748;8.728;2023-08-20T20:52:44;230388.00;;;222.90
12234;BMP180;6179;51.748;8.728;2023-08-20T20:58:45;230388.00;;;222.90
12234;BMP180;6179;51.748;8.728;2023-08-20T21:04:46;230388.00;;;222.90
12234;BMP180;6179;51.748;8.728;2023-08-20T21:10:47;108426.00;;;222.90
12234;BMP180;6179;51.748;8.728;2023-08-20T21:16:48;108420.00;;;222.90
12234;BMP180;6179;51.748;8.728;2023-08-20T21:22:48;108422.00;;;222.90
12234;BMP180;6179;51.748;8.728;2023-08-20T21:28:50;108423.00;;;222.90
12234;BMP180;6179;51.748;8.728;2023-08-20T21:34:52;108422.00;;;222.90
12234;BMP180;6179;51.748;8.728;2023-08-20T21:40:53;108424.00;;;222.90
12234;BMP180;6179;51.748;8.728;2023-08-20T21:46:55;108424.00;;;222.90
12234;BMP180;6179;51.748;8.728;2023-08-20T21:52:56;108423.00;;;222.90
12234;BMP180;6179;51.748;8.728;2023-08-20T21:58:57;108423.00;;;222.90
12234;BMP180;6179;51.748;8.728;2023-08-20T22:05:30;108423.00;;;222.90
12234;BMP180;6179;51.748;8.728;2023-08-20T22:11:31;108420.00;;;222.90
12234;BMP180;6179;51.748;8.728;2023-08-20T22:17:32;108420.00;;;222.90
12234;BMP180;6179;51.748;8.728;2023-08-20T22:23:33;108424.00;;;222.90
12234;BMP180;6179;51.748;8.728;2023-08-20T22:29:34;108420.00;;;222.90
12234;BMP180;6179;51.748;8.728;2023-08-20T22:35:35;108425.00;;;222.90
12234;BMP180;6179;51.748;8.728;2023-08-20T22:41:35;108422.00;;;222.90
12234;BMP180;6179;51.748;8.728;2023-08-20T22:47:36;108423.00;;;222.90
12234;BMP180;6179;51.748;8.728;2023-08-20T22:53:37;108420.00;;;222.90
12234;BMP180;6179;51.748;8.728;2023-08-20T22:59:37;108423.00;;;222.90
12234;BMP180;6179;51.748;8.728;2023-08-20T23:05:38;108420.00;;;222.90
12234;BMP180;6179;51.748;8.728;2023-08-20T23:11:39;108422.00;;;222.90
12234;BMP180;6179;51.748;8.728;2023-08-20T23:17:40;108422.00;;;222.90
12234;BMP180;6179;51.748;8.728;2023-08-20T23:23:41;108419.00;;;222.90
12234;BMP180;6179;51.748;8.728;2023-08-20T23:29:42;108421.00;;;222.90
12234;BMP180;6179;51.748;8.728;2023-08-20T23:35:43;108423.00;;;222.90
12234;BMP180;6179;51.748;8.728;2023-08-20T23:41:44;108422.00;;;222.90
12234;BMP180;6179;51.748;8.728;2023-08-20T23:47:45;108420.00;;;222.90
12234;BMP180;6179;51.748;8.728;2023-08-20T23:53:46;108424.00;;;222.90
12234;BMP180;6179;51.748;8.728;2023-08-20T23:59:47;108419.00;;;222.90
